Aérodrome :
LOGIN :

S'inscrire | Disclaimer

   EN    FR    IT 

 










Légende :    VFR   VFR Marginal   IFR   IFR Intensif   IFR Très Intensif
Visi : 
Plafond : 
>= 8 km
>= 3000ft
5 à 8 km
1000 à 3000 ft
1500m à 5 km
500 à 1000 ft
800 à 1500m
200 à 500 ft
< 800m
< 200 ft
Symboles :   Orages  Brouillard  Fortes neiges  Fortes précipitations  Vent > 20 kt
SIGMETs :   Divers  Orages  Givrage  Turbulence  Onde Orograph.  Cendres Volcan.







- Altitude de l'aérodrome : 325 ft
- Code IATA : BES
- Voir les cartes d'approche


LFRB - Brest

DERNIER METAR :
  • 221430Z AUTO 31012G25KT 270V340 9999 -RA SCT020/// BKN025/// BKN033/// ///CB 07/03 Q1005 TEMPO 2000 SHGS BKN012CB

METARs EXPIRÉS :
  • 221400Z AUTO 29009KT 250V320 9999 FEW021/// SCT082/// BKN110/// ///TCU 08/04 Q1005 TEMPO 30016G26KT 2000 SHGS BKN012CB
  • 221330Z AUTO 29008KT 260V320 9999 BKN048/// BKN074/// OVC090/// ///TCU 07/04 Q1006 TEMPO 30016G26KT 2000 SHGS BKN012CB
  • 221300Z AUTO 29009KT 250V320 9999 -RA BKN021/// BKN030/// BKN042/// ///CB 07/04 Q1006 TEMPO 30016G26KT 2000 SHGS BKN012CB
  • 221230Z AUTO 27007KT 240V300 9999 BKN023/// BKN029/// OVC039/// ///TCU 07/04 Q1007 TEMPO 3000 SHGS FEW014CB SCT020
  • 221200Z AUTO 28010KT 9999 SCT022/// BKN028/// BKN037/// ///CB 07/03 Q1007 TEMPO 3000 SHGS BKN014TCU

TAF TAF LFRB
Valide du 22 à 12h jusqu'au 23 à 18h UTC


221100Z 2212/2318 30012KT 9999 SCT030
TEMPO 2212/2308 4000 SHRA SCT012TCU BKN014
PROB30
TEMPO 2212/2218 30016G26KT 2000 SHGS BKN012CB
TEMPO 2312/2316 30016G28KT
PROB30
TEMPO 2308/2318 4000 SHRA BKN014
ATIS : +33 2 98 32 02 71
Pas de NOTAMs connus pour ce terrain.



MET'MAP, la Météo Aéronautique d'un coup d'oeil ! - Copyright ORBIFLY Décembre 2007 - Disclaimer

ORBIFLY MET'MAP TEAM :

Programmation & Développement : Alexandra Zaïnal
Conception & Développement : Baudouin d'Aumeries
Co-Programmation & Développement : Marc-Olivier Méhu
Soutien technique & logistique : Manuel Goepfert

Contact : metmap@orbifly.com




SOURCES & CREDITS :

   NOAA